Time;durP1;ratioP1;P1;durP2;ratioP2;P2;SDS_P1;SDS_P2;PMS_P1;PMS_P2;Temp;Humidity;BMP_temperature;BMP_pressure;BME280_temperature;BME280_humidity;BME280_pressure;Samples;Min_cycle;Max_cycle;Signal;HPM_P1;HPM_P2
2021/12/14 00:01:41;;;;;;;10.77;6.05;;;8.70;99.90;;;;;;4200091;28;20183;-93
2021/12/14 00:03:44;;;;;;;10.98;5.60;;;8.70;99.90;;;;;;4166930;28;20176;-94
2021/12/14 00:05:45;;;;;;;12.13;6.13;;;8.60;99.90;;;;;;4199624;28;20190;-93
2021/12/14 00:07:46;;;;;;;9.88;6.05;;;8.60;99.90;;;;;;4166949;28;20266;-94
2021/12/14 00:09:48;;;;;;;8.52;5.75;;;8.60;99.90;;;;;;4183429;28;20175;-94
2021/12/14 00:16:48;;;;;;;10.30;5.70;;;8.40;99.90;;;;;;4183122;28;20214;-92
2021/12/14 00:18:49;;;;;;;8.93;4.90;;;8.50;99.90;;;;;;4166665;28;20172;-93
2021/12/14 00:20:54;;;;;;;7.93;4.93;;;8.50;99.90;;;;;;4199982;28;20170;-93
2021/12/14 00:25:00;;;;;;;8.90;4.85;;;8.40;99.90;;;;;;4182967;28;20195;-94
2021/12/14 00:27:06;;;;;;;8.43;5.53;;;8.60;99.90;;;;;;4166702;28;20177;-93
2021/12/14 00:29:12;;;;;;;8.55;5.35;;;8.60;99.90;;;;;;4166836;28;20183;-94
2021/12/14 00:31:18;;;;;;;7.05;4.95;;;8.60;99.90;;;;;;4166704;28;20251;-94
2021/12/14 00:33:21;;;;;;;7.97;5.78;;;8.70;99.90;;;;;;4166348;28;20172;-93
2021/12/14 00:35:22;;;;;;;9.23;5.90;;;8.70;99.90;;;;;;4166137;28;20208;-93
2021/12/14 00:37:38;;;;;;;9.43;5.75;;;8.70;99.90;;;;;;4166373;28;20176;-93
2021/12/14 00:39:40;;;;;;;8.75;6.10;;;8.90;99.90;;;;;;4166604;28;20168;-93
2021/12/14 00:41:42;;;;;;;11.25;6.18;;;9.00;99.90;;;;;;4199559;28;20331;-93
2021/12/14 00:43:44;;;;;;;9.70;6.05;;;9.10;99.90;;;;;;4166339;28;20197;-93
2021/12/14 00:45:47;;;;;;;10.13;6.25;;;9.00;99.90;;;;;;4166300;28;20192;-92
2021/12/14 00:47:49;;;;;;;9.23;6.80;;;8.80;99.90;;;;;;4199482;28;20213;-95
2021/12/14 00:49:53;;;;;;;14.50;6.60;;;8.90;99.90;;;;;;4166309;28;20636;-93
2021/12/14 00:51:54;;;;;;;14.38;7.03;;;8.80;99.90;;;;;;4182864;28;20627;-94
2021/12/14 00:53:58;;;;;;;14.75;6.65;;;8.80;99.90;;;;;;4182601;28;20192;-94
2021/12/14 00:56:03;;;;;;;12.18;7.00;;;8.70;99.90;;;;;;4166141;28;20227;-93
2021/12/14 00:58:08;;;;;;;11.05;7.03;;;8.70;99.90;;;;;;4166418;28;20219;-93
2021/12/14 01:00:15;;;;;;;10.85;7.00;;;8.90;99.90;;;;;;4166468;28;20267;-94
2021/12/14 01:02:22;;;;;;;11.35;7.32;;;9.00;99.90;;;;;;4166756;28;20160;-92
2021/12/14 01:04:34;;;;;;;9.93;6.70;;;9.10;99.90;;;;;;4182660;28;20260;-93
2021/12/14 01:06:44;;;;;;;15.48;7.65;;;9.10;99.90;;;;;;4165935;28;20168;-93
2021/12/14 01:08:47;;;;;;;10.93;7.05;;;9.20;99.90;;;;;;4166072;28;20193;-93
2021/12/14 01:11:07;;;;;;;12.50;7.57;;;9.00;99.90;;;;;;4165917;28;20176;-92
2021/12/14 01:13:10;;;;;;;12.80;7.20;;;8.80;99.90;;;;;;4166102;28;20171;-95
2021/12/14 01:15:28;;;;;;;11.57;7.45;;;8.80;99.90;;;;;;4165584;28;20209;-94
2021/12/14 01:17:41;;;;;;;13.90;8.00;;;8.70;99.90;;;;;;4165801;28;20268;-94
2021/12/14 01:19:51;;;;;;;12.68;8.55;;;8.80;99.90;;;;;;4199005;28;20167;-93
2021/12/14 01:24:36;;;;;;;14.18;8.02;;;8.70;99.90;;;;;;4182267;28;20179;-93
2021/12/14 01:26:39;;;;;;;14.77;8.40;;;9.00;99.90;;;;;;4165695;28;20176;-92
2021/12/14 01:28:42;;;;;;;13.70;8.43;;;9.10;99.90;;;;;;4165850;28;20183;-93
2021/12/14 01:31:12;;;;;;;12.80;8.10;;;8.70;99.90;;;;;;4165613;28;20691;-93
2021/12/14 01:33:14;;;;;;;13.80;8.18;;;8.60;99.90;;;;;;4165645;28;20203;-94
2021/12/14 01:35:20;;;;;;;14.50;8.05;;;8.80;99.90;;;;;;4198538;28;20207;-94
2021/12/14 01:37:26;;;;;;;13.43;7.95;;;9.10;99.90;;;;;;4165931;28;20637;-94
2021/12/14 01:41:33;;;;;;;13.18;8.18;;;8.80;99.90;;;;;;4181736;28;20180;-93
2021/12/14 01:43:51;;;;;;;11.88;8.02;;;8.50;99.90;;;;;;4182159;28;20184;-93
2021/12/14 01:45:57;;;;;;;13.88;8.18;;;8.40;99.90;;;;;;4164841;28;20222;-93
2021/12/14 01:47:59;;;;;;;12.02;8.10;;;8.30;99.90;;;;;;4165840;28;20251;-93
2021/12/14 01:50:27;;;;;;;13.40;7.75;;;8.30;99.90;;;;;;4200601;28;20229;-93
2021/12/14 01:52:42;;;;;;;13.50;7.78;;;8.30;99.90;;;;;;4167468;28;20275;-92
2021/12/14 01:54:46;;;;;;;14.45;8.98;;;8.40;99.90;;;;;;4198397;28;20579;-95
2021/12/14 01:56:48;;;;;;;13.45;8.10;;;8.40;99.90;;;;;;4165215;28;20684;-94
2021/12/14 01:58:53;;;;;;;12.02;8.52;;;8.30;99.90;;;;;;4181935;28;20564;-94
2021/12/14 02:01:03;;;;;;;11.82;8.57;;;8.30;99.90;;;;;;4198174;28;20651;-94
2021/12/14 02:03:07;;;;;;;14.27;8.52;;;8.40;99.90;;;;;;4165140;28;20725;-93
2021/12/14 02:05:43;;;;;;;14.53;8.37;;;8.20;99.90;;;;;;4165402;28;20629;-94
2021/12/14 02:07:46;;;;;;;13.23;8.15;;;8.20;99.90;;;;;;4167746;28;20175;-94
2021/12/14 02:09:56;;;;;;;13.48;9.00;;;8.20;99.90;;;;;;4165212;28;20176;-94
2021/12/14 02:12:00;;;;;;;15.18;9.25;;;8.10;99.90;;;;;;4165186;28;20168;-93
2021/12/14 02:14:04;;;;;;;16.87;9.37;;;8.20;99.90;;;;;;4165028;28;20180;-94
2021/12/14 02:16:06;;;;;;;15.70;9.67;;;8.10;99.90;;;;;;4164841;28;20208;-93
2021/12/14 02:18:12;;;;;;;18.38;9.30;;;8.20;99.90;;;;;;4165078;28;20160;-93
2021/12/14 02:20:16;;;;;;;15.32;10.02;;;8.20;99.90;;;;;;4165099;28;20184;-93
2021/12/14 02:22:17;;;;;;;13.93;9.63;;;8.20;99.90;;;;;;4164912;28;20263;-94
2021/12/14 02:24:22;;;;;;;14.32;9.02;;;8.30;99.90;;;;;;4165105;28;20660;-93
2021/12/14 02:26:27;;;;;;;13.02;8.75;;;8.20;99.90;;;;;;4164664;28;20245;-94
2021/12/14 02:28:28;;;;;;;14.37;9.20;;;8.20;99.90;;;;;;4164836;28;20176;-94
2021/12/14 02:30:30;;;;;;;18.30;9.90;;;8.10;99.90;;;;;;4197811;28;20217;-93
2021/12/14 02:32:33;;;;;;;14.30;8.93;;;8.10;99.90;;;;;;4198114;28;20167;-93
2021/12/14 02:34:40;;;;;;;16.43;10.17;;;8.10;99.90;;;;;;4164901;28;20222;-93
2021/12/14 02:36:46;;;;;;;13.00;8.90;;;8.10;99.90;;;;;;4181459;28;20215;-93
2021/12/14 02:38:53;;;;;;;14.30;8.97;;;8.10;99.90;;;;;;4164792;28;20315;-92
2021/12/14 02:41:00;;;;;;;14.65;9.02;;;8.00;99.90;;;;;;4164512;28;20567;-93
2021/12/14 02:43:06;;;;;;;16.73;9.17;;;8.10;99.90;;;;;;4165081;28;20176;-93
2021/12/14 02:45:08;;;;;;;16.38;9.77;;;8.20;99.90;;;;;;4197599;28;20586;-93
2021/12/14 02:47:13;;;;;;;13.90;10.07;;;8.10;99.90;;;;;;4181177;28;20184;-93
2021/12/14 02:49:20;;;;;;;16.63;9.38;;;8.20;99.90;;;;;;4181155;28;20179;-92
2021/12/14 02:51:34;;;;;;;15.27;10.30;;;8.20;99.90;;;;;;4164651;28;20183;-94
2021/12/14 02:53:36;;;;;;;18.92;10.25;;;8.20;99.90;;;;;;4181192;28;20219;-94
2021/12/14 02:55:37;;;;;;;14.27;9.93;;;8.10;99.90;;;;;;4197628;28;20305;-94
2021/12/14 02:57:45;;;;;;;16.37;10.30;;;8.20;99.90;;;;;;4164497;28;20516;-93
2021/12/14 02:59:48;;;;;;;16.27;10.07;;;8.10;99.90;;;;;;4164642;28;20186;-92
2021/12/14 03:01:52;;;;;;;16.63;9.90;;;8.20;99.90;;;;;;4197679;28;20182;-93
2021/12/14 03:04:00;;;;;;;17.08;9.80;;;8.20;99.90;;;;;;4164498;28;20263;-94
2021/12/14 03:06:02;;;;;;;19.00;10.43;;;8.00;99.90;;;;;;4164372;28;20543;-94
2021/12/14 03:08:26;;;;;;;16.17;10.23;;;8.00;99.90;;;;;;4164324;28;20629;-93
2021/12/14 03:12:39;;;;;;;18.57;11.07;;;8.10;99.90;;;;;;4181069;28;20176;-93
2021/12/14 03:14:50;;;;;;;16.97;10.73;;;8.20;99.90;;;;;;4180878;28;20245;-94
2021/12/14 03:16:54;;;;;;;22.40;12.53;;;8.20;99.90;;;;;;4164393;28;20238;-92
2021/12/14 03:19:00;;;;;;;19.00;11.57;;;8.10;99.90;;;;;;4164668;28;20172;-93
2021/12/14 03:21:20;;;;;;;18.23;11.97;;;8.10;99.90;;;;;;4180960;28;20171;-93
2021/12/14 03:23:29;;;;;;;18.67;11.82;;;8.10;99.90;;;;;;4164392;28;20217;-93
2021/12/14 03:25:32;;;;;;;22.83;12.10;;;8.10;99.90;;;;;;4164163;28;20234;-94
2021/12/14 03:27:37;;;;;;;19.47;12.57;;;8.00;99.90;;;;;;4180857;28;20171;-93
2021/12/14 03:29:38;;;;;;;19.07;11.73;;;8.20;99.90;;;;;;4164321;28;20168;-92
2021/12/14 03:31:45;;;;;;;16.77;11.52;;;8.30;99.90;;;;;;4164285;28;20229;-93
2021/12/14 03:33:57;;;;;;;18.40;11.70;;;8.30;99.90;;;;;;4164538;28;20172;-93
2021/12/14 03:36:06;;;;;;;16.50;11.07;;;8.50;99.90;;;;;;4164130;28;20208;-94
2021/12/14 03:38:23;;;;;;;16.98;11.32;;;8.50;99.90;;;;;;4164244;28;20191;-93
2021/12/14 03:40:24;;;;;;;19.77;11.52;;;8.80;99.90;;;;;;4164556;28;20184;-93
2021/12/14 03:42:36;;;;;;;17.20;10.95;;;8.60;99.90;;;;;;4163986;28;20196;-93
2021/12/14 03:44:48;;;;;;;19.17;11.60;;;8.40;99.90;;;;;;4196884;28;20191;-93
2021/12/14 03:46:57;;;;;;;16.97;9.93;;;8.30;99.90;;;;;;4197668;28;20266;-93
2021/12/14 03:49:00;;;;;;;18.17;10.82;;;8.30;99.90;;;;;;4197385;28;20452;-92
2021/12/14 03:51:02;;;;;;;18.08;11.18;;;8.30;99.90;;;;;;4180708;28;20242;-93
2021/12/14 03:53:03;;;;;;;17.80;9.70;;;8.40;99.90;;;;;;4197179;28;20171;-93
2021/12/14 03:55:15;;;;;;;15.38;10.07;;;8.40;99.90;;;;;;4180484;28;20187;-94
2021/12/14 03:57:16;;;;;;;15.52;10.10;;;8.40;99.90;;;;;;4164094;28;20225;-94
2021/12/14 03:59:19;;;;;;;14.55;9.85;;;8.50;99.90;;;;;;4164352;28;20176;-92
2021/12/14 04:01:32;;;;;;;15.85;9.43;;;8.50;99.90;;;;;;4196991;28;20167;-93
2021/12/14 04:03:41;;;;;;;16.52;9.73;;;8.40;99.90;;;;;;4164752;28;20226;-93
2021/12/14 04:05:57;;;;;;;15.25;9.65;;;8.40;99.90;;;;;;4180558;28;20254;-93
2021/12/14 04:07:57;;;;;;;18.30;10.60;;;8.50;99.90;;;;;;4164123;28;20207;-93
2021/12/14 04:09:59;;;;;;;14.63;9.60;;;8.30;99.90;;;;;;4165980;28;20532;-93
2021/12/14 04:12:02;;;;;;;14.80;9.35;;;8.20;99.90;;;;;;4166959;28;20181;-95
2021/12/14 04:14:07;;;;;;;15.70;9.90;;;8.00;99.90;;;;;;4200184;28;20536;-92
2021/12/14 04:16:17;;;;;;;15.55;10.15;;;8.10;99.90;;;;;;4183245;28;20294;-93
2021/12/14 04:18:19;;;;;;;18.80;11.20;;;8.30;99.90;;;;;;4166691;28;20167;-93
2021/12/14 04:20:26;;;;;;;17.55;10.48;;;8.40;99.90;;;;;;4166942;28;20551;-93
2021/12/14 04:22:31;;;;;;;17.63;10.23;;;8.30;99.90;;;;;;4166749;28;20176;-93
2021/12/14 04:24:36;;;;;;;19.77;10.60;;;8.50;99.90;;;;;;4166771;28;20185;-93
2021/12/14 04:26:44;;;;;;;17.13;10.50;;;8.60;99.90;;;;;;4167067;28;20315;-92
2021/12/14 04:28:53;;;;;;;16.60;10.80;;;8.60;99.90;;;;;;4167094;28;20175;-92
2021/12/14 04:30:54;;;;;;;17.75;10.90;;;8.70;99.90;;;;;;4183235;28;20554;-93
2021/12/14 04:33:02;;;;;;;19.73;10.63;;;8.70;99.90;;;;;;4199862;28;20654;-95
2021/12/14 04:35:06;;;;;;;18.42;11.05;;;8.80;99.90;;;;;;4166763;28;20188;-94
2021/12/14 04:37:07;;;;;;;18.40;11.13;;;8.60;99.90;;;;;;4166773;28;20237;-92
2021/12/14 04:53:36;;;;;;;23.30;11.95;;;8.40;99.90;;;;;;4199311;28;20270;-92
2021/12/14 04:55:40;;;;;;;20.37;12.20;;;8.30;99.90;;;;;;4182502;28;20286;-93
2021/12/14 04:57:44;;;;;;;24.15;12.95;;;8.30;99.90;;;;;;4166308;28;20229;-94
2021/12/14 04:59:47;;;;;;;23.33;12.90;;;8.30;99.90;;;;;;4166071;28;20176;-92
2021/12/14 05:01:50;;;;;;;23.85;12.55;;;8.40;99.90;;;;;;4165918;28;20176;-92
2021/12/14 05:04:10;;;;;;;22.95;13.18;;;8.50;99.90;;;;;;4167987;28;20183;-93
2021/12/14 05:06:17;;;;;;;21.17;12.27;;;8.20;99.90;;;;;;4166217;28;20176;-92
2021/12/14 05:10:26;;;;;;;22.52;14.07;;;8.10;99.90;;;;;;4182668;28;20174;-92
2021/12/14 05:12:35;;;;;;;24.30;14.63;;;8.10;99.90;;;;;;4166942;28;20164;-94
2021/12/14 05:14:46;;;;;;;24.27;14.02;;;8.10;99.90;;;;;;4182484;28;20695;-94
2021/12/14 05:16:47;;;;;;;26.98;14.40;;;8.20;99.90;;;;;;4165604;28;20203;-94
2021/12/14 05:18:55;;;;;;;26.75;14.57;;;8.30;99.90;;;;;;4166192;28;20165;-93
2021/12/14 05:20:59;;;;;;;23.58;13.85;;;8.40;99.90;;;;;;4182252;28;20655;-93
2021/12/14 05:23:04;;;;;;;24.58;14.05;;;8.40;99.90;;;;;;4166232;28;20180;-93
2021/12/14 05:25:09;;;;;;;27.38;14.13;;;8.50;99.90;;;;;;4166046;28;20196;-93
2021/12/14 05:27:15;;;;;;;32.08;15.45;;;8.70;99.90;;;;;;4166063;28;20176;-93
2021/12/14 05:29:23;;;;;;;26.33;15.48;;;8.60;99.90;;;;;;4198943;28;20182;-93
2021/12/14 05:31:25;;;;;;;28.85;16.00;;;8.60;99.90;;;;;;4182533;28;20175;-94
2021/12/14 05:33:30;;;;;;;28.30;15.65;;;8.70;99.90;;;;;;4182366;28;20233;-94
2021/12/14 05:35:37;;;;;;;25.83;15.65;;;8.60;99.90;;;;;;4182339;28;20210;-94
2021/12/14 05:37:48;;;;;;;33.78;17.15;;;8.50;99.90;;;;;;4165775;28;20178;-93
2021/12/14 05:39:57;;;;;;;30.92;16.73;;;8.50;99.90;;;;;;4165869;28;20168;-93
2021/12/14 05:44:31;;;;;;;35.30;18.20;;;8.40;99.90;;;;;;4181934;28;20707;-94
2021/12/14 05:46:36;;;;;;;33.22;18.25;;;8.40;99.90;;;;;;4165698;28;20184;-94
2021/12/14 05:49:06;;;;;;;34.33;17.27;;;8.60;99.90;;;;;;4179031;28;20251;-92
2021/12/14 05:51:10;;;;;;;34.53;17.63;;;8.70;99.90;;;;;;4181861;28;20183;-94
2021/12/14 05:53:37;;;;;;;33.90;18.05;;;8.60;99.90;;;;;;4165422;28;20266;-93
2021/12/14 05:55:40;;;;;;;39.30;19.30;;;8.60;99.90;;;;;;4165264;28;20203;-93
2021/12/14 05:57:41;;;;;;;38.58;18.63;;;8.70;99.90;;;;;;4165376;28;20659;-94
2021/12/14 05:59:43;;;;;;;36.50;19.95;;;8.60;99.90;;;;;;4165299;28;20183;-94
2021/12/14 06:01:46;;;;;;;35.55;19.20;;;8.40;99.90;;;;;;4165264;28;20180;-94
2021/12/14 06:04:07;;;;;;;36.28;20.10;;;8.20;99.90;;;;;;4181666;28;20183;-93
2021/12/14 06:06:32;;;;;;;40.63;20.33;;;8.40;99.90;;;;;;4165099;28;20200;-93
2021/12/14 06:08:35;;;;;;;40.80;20.60;;;8.30;99.90;;;;;;4165137;28;20180;-93
2021/12/14 06:10:52;;;;;;;38.03;20.80;;;8.30;99.90;;;;;;4181782;28;20171;-92
2021/12/14 06:12:53;;;;;;;41.08;19.67;;;8.20;99.90;;;;;;4165127;28;20172;-92
2021/12/14 06:14:59;;;;;;;39.60;20.17;;;8.10;99.90;;;;;;4164940;28;20677;-93
2021/12/14 06:17:04;;;;;;;42.53;22.37;;;8.00;99.90;;;;;;4198075;28;20337;-93
2021/12/14 06:19:28;;;;;;;46.60;22.23;;;8.20;99.90;;;;;;4165126;28;20262;-93
2021/12/14 06:21:32;;;;;;;47.20;22.67;;;8.20;99.90;;;;;;4165765;28;20190;-93
2021/12/14 06:23:34;;;;;;;40.20;20.90;;;8.30;99.90;;;;;;4165052;28;20175;-92
2021/12/14 06:26:01;;;;;;;49.07;23.30;;;8.20;99.90;;;;;;4179540;28;20659;-93
2021/12/14 06:28:02;;;;;;;43.38;23.05;;;8.30;99.90;;;;;;4181425;28;20183;-93
2021/12/14 06:30:11;;;;;;;49.72;23.23;;;8.30;99.90;;;;;;4197916;28;20527;-95
2021/12/14 06:32:21;;;;;;;50.13;22.80;;;8.30;99.90;;;;;;4164902;28;20230;-93
2021/12/14 06:34:28;;;;;;;48.00;22.02;;;8.40;99.90;;;;;;4198020;28;20178;-93
2021/12/14 06:37:02;;;;;;;47.90;23.67;;;8.50;99.90;;;;;;4164948;28;20235;-95
2021/12/14 06:39:06;;;;;;;48.28;23.52;;;8.60;99.90;;;;;;4157184;28;20183;-94
2021/12/14 06:41:09;;;;;;;48.60;24.38;;;8.40;99.90;;;;;;4197951;28;20170;-94
2021/12/14 06:43:18;;;;;;;50.13;24.40;;;8.30;99.90;;;;;;4165094;28;20214;-93
2021/12/14 06:45:24;;;;;;;51.40;23.33;;;8.40;99.90;;;;;;4181026;28;20698;-93
2021/12/14 06:47:31;;;;;;;50.22;24.80;;;8.40;99.90;;;;;;4164674;28;20247;-94
2021/12/14 06:49:32;;;;;;;52.78;25.70;;;8.50;99.90;;;;;;4164744;28;20163;-93
2021/12/14 06:51:48;;;;;;;50.13;24.70;;;8.70;99.90;;;;;;4164624;28;20183;-92
2021/12/14 06:54:23;;;;;;;48.55;23.85;;;8.50;99.90;;;;;;4194351;28;20489;-95
2021/12/14 06:56:48;;;;;;;50.80;24.35;;;8.40;99.90;;;;;;4177466;28;20216;-94
2021/12/14 06:59:10;;;;;;;56.47;25.27;;;8.10;99.90;;;;;;4181085;28;20187;-94
2021/12/14 07:05:00;;;;;;;55.73;25.13;;;8.30;99.90;;;;;;4147656;28;20313;-94
2021/12/14 07:07:10;;;;;;;50.17;24.27;;;8.20;99.90;;;;;;4182520;28;20210;-95
2021/12/14 07:09:33;;;;;;;52.30;25.48;;;8.30;99.90;;;;;;4165738;28;20349;-95
2021/12/14 07:11:59;;;;;;;56.10;24.43;;;8.20;99.90;;;;;;4183169;28;20179;-93
2021/12/14 07:14:21;;;;;;;49.43;24.70;;;8.30;99.90;;;;;;4182230;28;20186;-93
2021/12/14 07:16:38;;;;;;;59.83;25.23;;;8.30;99.90;;;;;;4191319;28;20583;-95
2021/12/14 07:18:41;;;;;;;52.53;25.10;;;8.30;99.90;;;;;;4182944;28;20167;-86
2021/12/14 07:31:21;;;;;;;54.33;24.55;;;8.40;99.90;;;;;;4101694;29;20209;-95
2021/12/14 07:34:04;;;;;;;58.07;25.87;;;8.40;99.90;;;;;;4108536;28;20171;-94
2021/12/14 07:37:06;;;;;;;57.22;25.13;;;8.20;99.90;;;;;;4164368;23;20234;-95
2021/12/14 07:39:36;;;;;;;54.67;24.17;;;8.10;99.90;;;;;;4039894;29;20212;-96
2021/12/14 07:42:50;;;;;;;57.38;24.70;;;8.00;99.90;;;;;;4009789;29;20186;-96
2021/12/14 07:46:04;;;;;;;;;;;;;;;;;;;;;
2021/12/14 07:48:50;;;;;;;59.77;24.90;;;8.10;99.90;;;;;;3995470;29;20303;-94
2021/12/14 07:54:12;;;;;;;66.03;26.58;;;8.00;99.90;;;;;;4044408;29;20192;-93
2021/12/14 07:56:33;;;;;;;59.78;25.85;;;8.20;99.90;;;;;;4055299;29;20236;-92
2021/12/14 07:58:41;;;;;;;63.40;25.50;;;8.50;99.90;;;;;;4055663;29;20220;-92
2021/12/14 08:00:42;;;;;;;60.78;25.95;;;8.50;99.90;;;;;;4055195;29;20184;-92
2021/12/14 08:02:49;;;;;;;58.85;25.45;;;8.60;99.90;;;;;;4055300;29;20229;-92
2021/12/14 08:05:04;;;;;;;57.75;26.15;;;8.60;99.90;;;;;;4070874;29;20557;-93
2021/12/14 08:07:05;;;;;;;57.70;25.20;;;8.70;99.90;;;;;;4070946;29;20211;-92
2021/12/14 08:09:07;;;;;;;56.60;24.83;;;8.80;99.90;;;;;;4054890;29;20173;-86
2021/12/14 08:13:48;;;;;;;54.55;24.13;;;8.80;99.90;;;;;;4070405;29;20176;-86
2021/12/14 08:15:57;;;;;;;63.13;25.27;;;8.80;99.90;;;;;;4070165;29;20228;-85
2021/12/14 08:18:07;;;;;;;57.20;23.10;;;8.70;99.90;;;;;;4054457;29;20259;-86
2021/12/14 08:20:12;;;;;;;52.55;23.25;;;8.50;99.90;;;;;;4070223;29;20195;-86
2021/12/14 08:22:26;;;;;;;53.08;24.67;;;8.50;99.90;;;;;;4068463;29;20192;-85
2021/12/14 08:24:27;;;;;;;49.40;22.95;;;8.50;99.90;;;;;;4054397;29;20193;-86
2021/12/14 08:26:38;;;;;;;49.33;24.00;;;8.50;99.90;;;;;;4054463;29;20281;-86
2021/12/14 08:28:57;;;;;;;48.90;23.17;;;8.50;99.90;;;;;;4054297;29;20176;-85
2021/12/14 08:31:01;;;;;;;54.42;24.50;;;8.50;99.90;;;;;;4063325;29;20251;-86
2021/12/14 08:33:03;;;;;;;50.65;23.23;;;8.60;99.90;;;;;;4069935;29;20266;-86
2021/12/14 08:35:08;;;;;;;47.83;21.85;;;8.50;99.90;;;;;;4069960;29;20203;-86
2021/12/14 08:37:16;;;;;;;56.75;24.83;;;8.40;99.90;;;;;;4054032;29;20224;-86
2021/12/14 08:39:21;;;;;;;51.45;23.30;;;8.50;99.90;;;;;;4069748;29;20191;-86
2021/12/14 08:41:25;;;;;;;49.10;23.63;;;8.60;99.90;;;;;;4054008;29;20617;-85
2021/12/14 08:43:32;;;;;;;49.30;23.08;;;8.60;99.90;;;;;;4054232;29;20272;-84
2021/12/14 08:45:39;;;;;;;52.78;23.30;;;8.60;99.90;;;;;;4069827;29;20231;-86
2021/12/14 08:47:41;;;;;;;50.53;22.13;;;8.60;99.90;;;;;;4054397;29;20180;-87
2021/12/14 08:49:43;;;;;;;49.85;23.05;;;8.30;99.90;;;;;;4054204;29;20229;-86
2021/12/14 08:51:45;;;;;;;53.25;23.35;;;8.20;99.90;;;;;;4069786;29;20188;-86
2021/12/14 08:54:11;;;;;;;52.08;23.45;;;8.20;99.90;;;;;;4069862;29;20629;-86
2021/12/14 08:56:13;;;;;;;48.75;22.98;;;8.30;99.90;;;;;;4053606;29;20715;-86
2021/12/14 08:58:14;;;;;;;46.83;21.83;;;8.30;99.90;;;;;;4069692;29;20180;-86
2021/12/14 09:00:20;;;;;;;53.23;22.70;;;8.30;99.90;;;;;;4069253;29;20180;-87
2021/12/14 09:02:23;;;;;;;50.88;23.13;;;8.40;99.90;;;;;;4054290;29;20177;-86
2021/12/14 09:04:30;;;;;;;52.03;23.45;;;8.40;99.90;;;;;;4054358;29;20268;-86
2021/12/14 09:06:35;;;;;;;48.65;23.38;;;8.60;99.90;;;;;;4054236;29;20177;-86
2021/12/14 09:08:38;;;;;;;52.13;23.20;;;8.60;99.90;;;;;;4069792;29;20289;-86
2021/12/14 09:10:40;;;;;;;47.70;22.95;;;8.80;99.90;;;;;;4069647;29;20191;-86
2021/12/14 09:12:44;;;;;;;52.50;24.23;;;8.80;99.90;;;;;;4053766;29;20212;-86
2021/12/14 09:14:47;;;;;;;46.88;21.85;;;8.70;99.90;;;;;;4069616;29;20688;-88
2021/12/14 09:16:54;;;;;;;48.30;23.27;;;8.70;99.90;;;;;;4054192;29;20621;-86
2021/12/14 09:19:04;;;;;;;42.28;21.17;;;8.60;99.90;;;;;;4069533;29;20175;-86
2021/12/14 09:21:11;;;;;;;47.78;21.98;;;8.70;99.90;;;;;;4069497;29;20227;-86
2021/12/14 09:23:18;;;;;;;47.75;21.90;;;8.60;99.90;;;;;;4053870;29;20169;-86
2021/12/14 09:25:24;;;;;;;44.90;21.08;;;8.60;99.90;;;;;;4053681;29;20516;-86
2021/12/14 09:27:28;;;;;;;45.20;22.08;;;8.70;99.90;;;;;;4053653;29;20169;-87
2021/12/14 09:29:30;;;;;;;48.92;23.15;;;8.70;99.90;;;;;;4053578;29;20216;-87
2021/12/14 09:31:35;;;;;;;45.40;21.65;;;8.70;99.90;;;;;;4069094;29;20525;-86
2021/12/14 09:33:39;;;;;;;44.00;22.33;;;8.70;99.90;;;;;;4053560;29;20725;-86
2021/12/14 09:35:43;;;;;;;43.47;21.38;;;8.60;99.90;;;;;;4053486;29;20208;-86
2021/12/14 09:37:47;;;;;;;46.58;22.58;;;8.60;99.90;;;;;;4053500;29;20177;-86
2021/12/14 09:39:52;;;;;;;46.95;21.55;;;8.70;99.90;;;;;;4069330;29;20176;-86
2021/12/14 09:41:53;;;;;;;46.97;22.00;;;8.90;99.90;;;;;;4070233;29;20267;-86
2021/12/14 09:43:55;;;;;;;47.22;21.67;;;9.00;99.90;;;;;;4053446;29;20328;-87
2021/12/14 09:45:58;;;;;;;45.80;22.25;;;9.00;99.90;;;;;;4053452;29;20197;-88
2021/12/14 09:48:01;;;;;;;43.20;22.00;;;9.00;99.90;;;;;;4053509;29;20189;-86
2021/12/14 09:50:10;;;;;;;45.20;22.42;;;8.90;99.90;;;;;;4068990;29;20188;-86
2021/12/14 09:52:19;;;;;;;42.55;21.73;;;9.00;99.90;;;;;;4053238;29;20173;-85
2021/12/14 09:54:25;;;;;;;44.58;22.58;;;8.90;99.90;;;;;;4068871;29;20180;-87
2021/12/14 09:56:31;;;;;;;44.00;21.52;;;9.00;99.90;;;;;;4069068;29;20662;-86
2021/12/14 09:58:37;;;;;;;45.65;21.95;;;9.10;99.90;;;;;;4053506;29;20165;-88
2021/12/14 10:00:53;;;;;;;43.17;20.48;;;9.10;99.90;;;;;;4053312;29;20272;-86
2021/12/14 10:02:56;;;;;;;45.53;22.50;;;9.20;99.90;;;;;;4053533;29;20187;-86
2021/12/14 10:05:12;;;;;;;41.78;21.27;;;9.10;99.90;;;;;;4053403;29;20193;-86
2021/12/14 10:07:14;;;;;;;44.10;22.45;;;9.10;99.90;;;;;;4052682;29;20177;-88
2021/12/14 10:09:19;;;;;;;43.70;21.17;;;9.00;99.90;;;;;;4053051;29;20177;-86
2021/12/14 10:11:27;;;;;;;49.53;22.10;;;9.00;99.90;;;;;;4068723;29;20687;-86
2021/12/14 10:13:29;;;;;;;43.10;21.58;;;9.30;99.90;;;;;;4053130;29;20175;-88
2021/12/14 10:15:46;;;;;;;46.70;23.08;;;9.20;99.90;;;;;;4068320;29;20295;-86
2021/12/14 10:17:48;;;;;;;48.83;22.30;;;9.20;99.90;;;;;;4053189;29;20177;-86
2021/12/14 10:19:50;;;;;;;50.00;22.75;;;9.10;99.90;;;;;;4068250;29;20566;-89
2021/12/14 10:21:58;;;;;;;50.25;23.00;;;9.10;99.90;;;;;;4052921;29;20187;-86
2021/12/14 10:24:01;;;;;;;44.13;21.73;;;9.30;99.90;;;;;;4052731;29;20301;-86
2021/12/14 10:26:03;;;;;;;45.63;21.77;;;9.40;99.90;;;;;;4068546;29;20640;-86
2021/12/14 10:28:05;;;;;;;47.08;22.33;;;9.40;99.90;;;;;;4052966;29;20206;-86
2021/12/14 10:30:15;;;;;;;46.75;23.15;;;9.50;99.90;;;;;;4068426;29;20184;-86
2021/12/14 10:32:24;;;;;;;45.92;22.02;;;9.50;99.90;;;;;;4052769;29;20165;-86
2021/12/14 10:34:28;;;;;;;43.88;22.60;;;9.60;99.90;;;;;;4052259;29;20260;-86
2021/12/14 10:36:36;;;;;;;51.70;22.90;;;9.60;99.90;;;;;;4052800;29;20251;-87
2021/12/14 10:38:50;;;;;;;45.63;23.38;;;9.80;99.90;;;;;;4068553;29;20184;-86
2021/12/14 10:43:22;;;;;;;44.85;23.23;;;9.60;99.90;;;;;;4084061;29;20180;-86
2021/12/14 10:45:28;;;;;;;52.92;23.63;;;9.50;99.90;;;;;;4052390;29;20304;-87
2021/12/14 10:47:31;;;;;;;44.35;22.15;;;9.60;99.90;;;;;;4052641;29;20232;-86
2021/12/14 10:49:32;;;;;;;45.63;23.40;;;9.70;99.90;;;;;;4068067;29;20172;-86
2021/12/14 10:51:37;;;;;;;50.85;23.63;;;9.90;99.90;;;;;;4052619;29;20220;-86
2021/12/14 10:53:43;;;;;;;77.82;46.25;;;9.90;99.90;;;;;;4052477;29;20184;-87
2021/12/14 10:55:48;;;;;;;47.30;24.10;;;10.00;99.90;;;;;;4052446;29;20216;-87
2021/12/14 10:57:49;;;;;;;45.80;23.52;;;9.80;99.90;;;;;;4052721;29;20173;-87
2021/12/14 10:59:53;;;;;;;46.55;23.42;;;9.90;99.90;;;;;;4052674;29;20688;-86
2021/12/14 11:01:55;;;;;;;45.33;22.42;;;9.90;99.90;;;;;;4052556;29;20176;-86
2021/12/14 11:04:04;;;;;;;46.67;22.98;;;9.70;99.90;;;;;;4068303;29;20172;-87
2021/12/14 11:06:11;;;;;;;53.72;24.65;;;9.50;99.90;;;;;;4068409;29;20219;-89
2021/12/14 11:08:35;;;;;;;46.90;23.17;;;9.60;99.90;;;;;;4053138;29;20263;-93
2021/12/14 11:10:38;;;;;;;48.22;23.90;;;9.80;99.90;;;;;;4052754;29;20184;-93
2021/12/14 11:12:42;;;;;;;45.55;22.83;;;9.90;99.90;;;;;;4068447;29;20687;-93
2021/12/14 11:14:45;;;;;;;44.13;22.38;;;10.10;99.90;;;;;;4052715;29;20201;-92
2021/12/14 11:19:09;;;;;;;47.47;22.95;;;9.80;99.90;;;;;;4086165;29;20274;-93
2021/12/14 11:21:13;;;;;;;45.92;23.15;;;9.80;99.90;;;;;;4055694;29;20181;-92
2021/12/14 11:23:36;;;;;;;43.00;22.35;;;9.80;99.90;;;;;;4055823;29;20642;-93
2021/12/14 11:25:45;;;;;;;46.38;23.05;;;9.60;99.90;;;;;;4070431;29;20192;-92
2021/12/14 11:28:14;;;;;;;46.88;23.33;;;9.60;99.90;;;;;;4070768;29;20719;-95
2021/12/14 11:34:31;;;;;;;47.42;23.85;;;9.90;99.90;;;;;;4076816;29;20656;-96
2021/12/14 11:36:38;;;;;;;43.90;22.30;;;9.90;99.90;;;;;;4058136;29;20221;-94
2021/12/14 11:38:44;;;;;;;45.17;21.15;;;9.80;99.90;;;;;;4078426;29;20179;-93
2021/12/14 11:41:21;;;;;;;43.30;21.60;;;9.80;99.90;;;;;;4072493;29;20173;-93
2021/12/14 11:43:33;;;;;;;44.90;22.77;;;9.60;99.90;;;;;;4073798;29;20565;-94
2021/12/14 11:45:38;;;;;;;44.80;22.70;;;9.70;99.90;;;;;;4072206;29;20208;-93
2021/12/14 11:47:46;;;;;;;42.00;22.40;;;10.10;99.90;;;;;;4072220;29;20268;-92
2021/12/14 11:49:55;;;;;;;47.47;22.50;;;9.90;99.90;;;;;;4071514;29;20668;-93
2021/12/14 11:51:56;;;;;;;48.00;23.77;;;9.80;99.90;;;;;;4070974;29;20195;-90
2021/12/14 11:54:00;;;;;;;52.10;22.65;;;10.00;99.90;;;;;;4087658;29;20674;-91
2021/12/14 11:56:03;;;;;;;45.53;22.73;;;9.90;99.90;;;;;;4071377;29;20243;-92
2021/12/14 11:58:07;;;;;;;42.03;22.50;;;10.00;99.90;;;;;;4071672;29;20184;-92
2021/12/14 12:00:14;;;;;;;47.35;23.73;;;9.90;99.90;;;;;;4071762;29;20189;-93
2021/12/14 12:02:21;;;;;;;45.10;23.30;;;9.90;99.90;;;;;;4071796;29;20168;-94
2021/12/14 12:04:34;;;;;;;44.92;22.77;;;9.80;99.90;;;;;;4070496;29;20176;-93